sensor_id;sensor_type;location;lat;lon;timestamp;pressure;altitude;pressure_sealevel;temperature;humidity
6524;BME280;3295;38.928;-77.052;2022-12-31T00:01:35;101543.03;;;16.10;81.99
6524;BME280;3295;38.928;-77.052;2022-12-31T00:04:03;101553.34;;;16.10;82.76
6524;BME280;3295;38.928;-77.052;2022-12-31T00:06:33;101544.28;;;15.99;82.56
6524;BME280;3295;38.928;-77.052;2022-12-31T00:09:02;101553.50;;;15.92;84.06
6524;BME280;3295;38.928;-77.052;2022-12-31T00:11:33;101552.47;;;15.89;84.36
6524;BME280;3295;38.928;-77.052;2022-12-31T00:14:02;101548.88;;;15.84;83.94
6524;BME280;3295;38.928;-77.052;2022-12-31T00:16:32;101543.19;;;15.70;84.94
6524;BME280;3295;38.928;-77.052;2022-12-31T00:19:02;101538.59;;;15.63;86.06
6524;BME280;3295;38.928;-77.052;2022-12-31T00:21:31;101533.22;;;15.57;86.17
6524;BME280;3295;38.928;-77.052;2022-12-31T00:24:01;101532.94;;;15.51;86.44
6524;BME280;3295;38.928;-77.052;2022-12-31T00:26:33;101536.91;;;15.43;88.52
6524;BME280;3295;38.928;-77.052;2022-12-31T00:29:01;101530.75;;;15.39;88.21
6524;BME280;3295;38.928;-77.052;2022-12-31T00:31:30;101532.94;;;15.30;88.43
6524;BME280;3295;38.928;-77.052;2022-12-31T00:34:00;101532.69;;;15.24;89.09
6524;BME280;3295;38.928;-77.052;2022-12-31T00:36:30;101531.66;;;15.20;91.00
6524;BME280;3295;38.928;-77.052;2022-12-31T00:38:59;101521.25;;;15.17;91.82
6524;BME280;3295;38.928;-77.052;2022-12-31T00:41:28;101522.97;;;15.17;91.00
6524;BME280;3295;38.928;-77.052;2022-12-31T00:43:58;101529.75;;;15.15;89.17
6524;BME280;3295;38.928;-77.052;2022-12-31T00:46:27;101521.69;;;15.07;89.35
6524;BME280;3295;38.928;-77.052;2022-12-31T00:48:56;101518.25;;;15.07;90.32
6524;BME280;3295;38.928;-77.052;2022-12-31T00:51:25;101520.69;;;15.04;91.53
6524;BME280;3295;38.928;-77.052;2022-12-31T00:53:55;101521.53;;;15.03;90.33
6524;BME280;3295;38.928;-77.052;2022-12-31T00:56:25;101528.28;;;15.01;89.53
6524;BME280;3295;38.928;-77.052;2022-12-31T00:58:54;101518.38;;;14.89;91.90
6524;BME280;3295;38.928;-77.052;2022-12-31T01:01:25;101518.97;;;14.83;92.32
6524;BME280;3295;38.928;-77.052;2022-12-31T01:03:57;101520.34;;;14.75;91.74
6524;BME280;3295;38.928;-77.052;2022-12-31T01:06:25;101519.13;;;14.67;92.82
6524;BME280;3295;38.928;-77.052;2022-12-31T01:08:53;101513.19;;;14.68;93.10
6524;BME280;3295;38.928;-77.052;2022-12-31T01:11:22;101507.91;;;14.65;93.35
6524;BME280;3295;38.928;-77.052;2022-12-31T01:13:56;101507.03;;;14.65;92.99
6524;BME280;3295;38.928;-77.052;2022-12-31T01:16:28;101507.38;;;14.53;94.50
6524;BME280;3295;38.928;-77.052;2022-12-31T01:18:58;101512.78;;;14.59;95.98
6524;BME280;3295;38.928;-77.052;2022-12-31T01:21:27;101513.59;;;14.58;97.49
6524;BME280;3295;38.928;-77.052;2022-12-31T01:23:57;101512.03;;;14.62;95.01
6524;BME280;3295;38.928;-77.052;2022-12-31T01:26:26;101514.66;;;14.63;94.51
6524;BME280;3295;38.928;-77.052;2022-12-31T01:28:55;101514.34;;;14.55;94.87
6524;BME280;3295;38.928;-77.052;2022-12-31T01:31:26;101507.66;;;14.59;94.69
6524;BME280;3295;38.928;-77.052;2022-12-31T01:33:54;101507.66;;;14.59;98.98
6524;BME280;3295;38.928;-77.052;2022-12-31T01:36:23;101507.50;;;14.56;96.74
6524;BME280;3295;38.928;-77.052;2022-12-31T01:38:52;101501.34;;;14.52;98.69
6524;BME280;3295;38.928;-77.052;2022-12-31T01:41:24;101503.19;;;14.55;100.00
6524;BME280;3295;38.928;-77.052;2022-12-31T01:43:55;101494.81;;;14.59;100.00
6524;BME280;3295;38.928;-77.052;2022-12-31T01:46:31;101495.28;;;14.50;100.00
6524;BME280;3295;38.928;-77.052;2022-12-31T01:49:04;101491.38;;;14.58;100.00
6524;BME280;3295;38.928;-77.052;2022-12-31T01:51:37;101483.94;;;14.45;100.00
6524;BME280;3295;38.928;-77.052;2022-12-31T01:54:08;101485.22;;;14.55;100.00
6524;BME280;3295;38.928;-77.052;2022-12-31T01:56:38;101480.47;;;14.64;100.00
6524;BME280;3295;38.928;-77.052;2022-12-31T01:59:09;101482.56;;;14.73;100.00
6524;BME280;3295;38.928;-77.052;2022-12-31T02:01:41;101474.38;;;14.81;100.00
6524;BME280;3295;38.928;-77.052;2022-12-31T02:04:11;101476.41;;;14.88;100.00
6524;BME280;3295;38.928;-77.052;2022-12-31T02:06:43;101475.00;;;14.97;100.00
6524;BME280;3295;38.928;-77.052;2022-12-31T02:09:13;101474.34;;;15.01;100.00
6524;BME280;3295;38.928;-77.052;2022-12-31T02:11:41;101465.00;;;15.03;100.00
6524;BME280;3295;38.928;-77.052;2022-12-31T02:14:12;101471.25;;;15.09;100.00
6524;BME280;3295;38.928;-77.052;2022-12-31T02:16:48;101467.25;;;15.16;100.00
6524;BME280;3295;38.928;-77.052;2022-12-31T02:19:43;101459.59;;;15.17;100.00
6524;BME280;3295;38.928;-77.052;2022-12-31T02:22:27;101465.06;;;15.25;100.00
6524;BME280;3295;38.928;-77.052;2022-12-31T02:25:26;101473.00;;;15.31;100.00
6524;BME280;3295;38.928;-77.052;2022-12-31T02:28:10;101475.56;;;15.31;100.00
6524;BME280;3295;38.928;-77.052;2022-12-31T02:30:47;101471.44;;;15.35;100.00
6524;BME280;3295;38.928;-77.052;2022-12-31T02:33:20;101468.06;;;15.36;100.00
6524;BME280;3295;38.928;-77.052;2022-12-31T02:35:54;101472.44;;;15.38;100.00
6524;BME280;3295;38.928;-77.052;2022-12-31T02:38:25;101468.13;;;15.37;100.00
6524;BME280;3295;38.928;-77.052;2022-12-31T02:40:56;101466.34;;;15.36;100.00
6524;BME280;3295;38.928;-77.052;2022-12-31T02:43:25;101453.03;;;15.46;100.00
6524;BME280;3295;38.928;-77.052;2022-12-31T02:46:04;101453.03;;;15.46;100.00
6524;BME280;3295;38.928;-77.052;2022-12-31T02:48:42;101454.72;;;15.44;100.00
6524;BME280;3295;38.928;-77.052;2022-12-31T02:51:31;101451.28;;;15.45;100.00
6524;BME280;3295;38.928;-77.052;2022-12-31T02:54:20;101451.41;;;15.48;100.00
6524;BME280;3295;38.928;-77.052;2022-12-31T02:57:01;101459.59;;;15.38;100.00
6524;BME280;3295;38.928;-77.052;2022-12-31T02:59:35;101462.28;;;15.41;100.00
6524;BME280;3295;38.928;-77.052;2022-12-31T03:02:27;101460.69;;;15.45;100.00
6524;BME280;3295;38.928;-77.052;2022-12-31T03:04:58;101464.09;;;15.44;100.00
6524;BME280;3295;38.928;-77.052;2022-12-31T03:07:29;101454.44;;;15.38;100.00
6524;BME280;3295;38.928;-77.052;2022-12-31T03:09:59;101448.81;;;15.26;100.00
6524;BME280;3295;38.928;-77.052;2022-12-31T03:12:29;101448.06;;;15.08;100.00
6524;BME280;3295;38.928;-77.052;2022-12-31T03:15:14;101444.00;;;14.92;100.00
6524;BME280;3295;38.928;-77.052;2022-12-31T03:17:54;101434.78;;;14.97;100.00
6524;BME280;3295;38.928;-77.052;2022-12-31T03:20:26;101423.78;;;15.00;100.00
6524;BME280;3295;38.928;-77.052;2022-12-31T03:23:11;101428.19;;;15.04;100.00
6524;BME280;3295;38.928;-77.052;2022-12-31T03:25:39;101437.78;;;15.08;100.00
6524;BME280;3295;38.928;-77.052;2022-12-31T03:28:08;101446.19;;;15.04;100.00
6524;BME280;3295;38.928;-77.052;2022-12-31T03:30:37;101448.28;;;15.12;100.00
6524;BME280;3295;38.928;-77.052;2022-12-31T03:33:07;101454.59;;;15.20;100.00
6524;BME280;3295;38.928;-77.052;2022-12-31T03:35:37;101448.34;;;15.14;100.00
6524;BME280;3295;38.928;-77.052;2022-12-31T03:38:06;101455.97;;;15.12;100.00
6524;BME280;3295;38.928;-77.052;2022-12-31T03:40:37;101454.41;;;15.16;100.00
6524;BME280;3295;38.928;-77.052;2022-12-31T03:43:05;101447.47;;;15.13;100.00
6524;BME280;3295;38.928;-77.052;2022-12-31T03:45:33;101451.59;;;15.10;100.00
6524;BME280;3295;38.928;-77.052;2022-12-31T03:48:02;101455.09;;;15.12;100.00
6524;BME280;3295;38.928;-77.052;2022-12-31T03:50:33;101447.53;;;15.15;100.00
6524;BME280;3295;38.928;-77.052;2022-12-31T03:53:01;101447.06;;;15.25;100.00
6524;BME280;3295;38.928;-77.052;2022-12-31T03:55:29;101460.84;;;15.27;100.00
6524;BME280;3295;38.928;-77.052;2022-12-31T03:57:57;101441.66;;;15.19;100.00
6524;BME280;3295;38.928;-77.052;2022-12-31T04:00:25;101451.84;;;15.16;100.00
6524;BME280;3295;38.928;-77.052;2022-12-31T04:02:53;101460.47;;;15.18;100.00
6524;BME280;3295;38.928;-77.052;2022-12-31T04:05:22;101457.03;;;15.17;100.00
6524;BME280;3295;38.928;-77.052;2022-12-31T04:07:51;101461.59;;;15.24;100.00
6524;BME280;3295;38.928;-77.052;2022-12-31T04:10:20;101455.72;;;15.27;100.00
6524;BME280;3295;38.928;-77.052;2022-12-31T04:12:48;101461.00;;;15.30;100.00
6524;BME280;3295;38.928;-77.052;2022-12-31T04:15:18;101461.75;;;15.27;100.00
6524;BME280;3295;38.928;-77.052;2022-12-31T04:17:46;101465.88;;;15.24;100.00
6524;BME280;3295;38.928;-77.052;2022-12-31T04:20:15;101464.13;;;15.23;100.00
6524;BME280;3295;38.928;-77.052;2022-12-31T04:22:43;101465.19;;;15.28;100.00
6524;BME280;3295;38.928;-77.052;2022-12-31T04:25:12;101456.47;;;15.24;100.00
6524;BME280;3295;38.928;-77.052;2022-12-31T04:27:41;101454.03;;;15.27;100.00
6524;BME280;3295;38.928;-77.052;2022-12-31T04:30:11;101451.53;;;15.29;100.00
6524;BME280;3295;38.928;-77.052;2022-12-31T04:32:39;101444.97;;;15.37;100.00
6524;BME280;3295;38.928;-77.052;2022-12-31T04:35:08;101432.13;;;15.37;100.00
6524;BME280;3295;38.928;-77.052;2022-12-31T04:37:37;101444.84;;;15.34;100.00
6524;BME280;3295;38.928;-77.052;2022-12-31T04:40:05;101444.09;;;15.37;100.00
6524;BME280;3295;38.928;-77.052;2022-12-31T04:42:35;101444.91;;;15.36;100.00
6524;BME280;3295;38.928;-77.052;2022-12-31T04:45:04;101452.00;;;15.41;100.00
6524;BME280;3295;38.928;-77.052;2022-12-31T04:47:32;101439.03;;;15.38;100.00
6524;BME280;3295;38.928;-77.052;2022-12-31T04:50:00;101432.47;;;15.46;100.00
6524;BME280;3295;38.928;-77.052;2022-12-31T04:52:28;101422.19;;;15.46;100.00
6524;BME280;3295;38.928;-77.052;2022-12-31T04:54:55;101428.88;;;15.41;100.00
6524;BME280;3295;38.928;-77.052;2022-12-31T04:57:23;101424.47;;;15.39;100.00
6524;BME280;3295;38.928;-77.052;2022-12-31T04:59:53;101430.38;;;15.36;100.00
6524;BME280;3295;38.928;-77.052;2022-12-31T05:02:20;101430.38;;;15.36;100.00
6524;BME280;3295;38.928;-77.052;2022-12-31T05:04:48;101434.75;;;15.39;100.00
6524;BME280;3295;38.928;-77.052;2022-12-31T05:07:16;101435.66;;;15.39;100.00
6524;BME280;3295;38.928;-77.052;2022-12-31T05:09:44;101435.78;;;15.42;100.00
6524;BME280;3295;38.928;-77.052;2022-12-31T05:12:12;101433.25;;;15.44;100.00
6524;BME280;3295;38.928;-77.052;2022-12-31T05:14:40;101430.50;;;15.39;100.00
6524;BME280;3295;38.928;-77.052;2022-12-31T05:17:09;101440.78;;;15.39;100.00
6524;BME280;3295;38.928;-77.052;2022-12-31T05:19:37;101439.91;;;15.39;100.00
6524;BME280;3295;38.928;-77.052;2022-12-31T05:22:04;101425.22;;;15.36;100.00
6524;BME280;3295;38.928;-77.052;2022-12-31T05:24:49;101418.13;;;15.29;100.00
6524;BME280;3295;38.928;-77.052;2022-12-31T05:27:17;101424.75;;;15.24;100.00
6524;BME280;3295;38.928;-77.052;2022-12-31T05:29:45;101410.97;;;15.22;100.00
6524;BME280;3295;38.928;-77.052;2022-12-31T05:32:14;101405.81;;;15.22;100.00
6524;BME280;3295;38.928;-77.052;2022-12-31T05:34:45;101405.94;;;15.25;100.00
6524;BME280;3295;38.928;-77.052;2022-12-31T05:37:13;101398.06;;;15.20;100.00
6524;BME280;3295;38.928;-77.052;2022-12-31T05:39:40;101400.69;;;15.22;100.00
6524;BME280;3295;38.928;-77.052;2022-12-31T05:42:08;101391.28;;;15.22;100.00
6524;BME280;3295;38.928;-77.052;2022-12-31T05:44:36;101384.38;;;15.21;100.00
6524;BME280;3295;38.928;-77.052;2022-12-31T05:47:04;101378.50;;;15.24;100.00
6524;BME280;3295;38.928;-77.052;2022-12-31T05:49:33;101380.25;;;15.25;100.00
6524;BME280;3295;38.928;-77.052;2022-12-31T05:52:01;101375.94;;;15.24;100.00
6524;BME280;3295;38.928;-77.052;2022-12-31T05:54:29;101369.97;;;15.25;100.00
6524;BME280;3295;38.928;-77.052;2022-12-31T05:56:57;101366.59;;;15.26;100.00
6524;BME280;3295;38.928;-77.052;2022-12-31T05:59:25;101365.94;;;15.32;100.00
6524;BME280;3295;38.928;-77.052;2022-12-31T06:01:53;101358.22;;;15.32;100.00
6524;BME280;3295;38.928;-77.052;2022-12-31T06:04:21;101356.44;;;15.29;100.00
6524;BME280;3295;38.928;-77.052;2022-12-31T06:06:51;101355.03;;;15.37;100.00
6524;BME280;3295;38.928;-77.052;2022-12-31T06:09:19;101346.38;;;15.35;100.00
6524;BME280;3295;38.928;-77.052;2022-12-31T06:11:47;101349.75;;;15.34;100.00
6524;BME280;3295;38.928;-77.052;2022-12-31T06:14:15;101353.25;;;15.36;100.00
6524;BME280;3295;38.928;-77.052;2022-12-31T06:16:43;101355.72;;;15.33;100.00
6524;BME280;3295;38.928;-77.052;2022-12-31T06:19:11;101366.94;;;15.35;100.00
6524;BME280;3295;38.928;-77.052;2022-12-31T06:21:38;101372.06;;;15.35;100.00
6524;BME280;3295;38.928;-77.052;2022-12-31T06:24:08;101365.19;;;15.34;100.00
6524;BME280;3295;38.928;-77.052;2022-12-31T06:26:36;101370.09;;;15.28;100.00
6524;BME280;3295;38.928;-77.052;2022-12-31T06:29:04;101366.72;;;15.29;100.00
6524;BME280;3295;38.928;-77.052;2022-12-31T06:31:31;101370.09;;;15.28;100.00
6524;BME280;3295;38.928;-77.052;2022-12-31T06:33:59;101374.31;;;15.26;100.00
6524;BME280;3295;38.928;-77.052;2022-12-31T06:36:27;101370.59;;;15.19;100.00
6524;BME280;3295;38.928;-77.052;2022-12-31T06:38:55;101373.16;;;15.19;100.00
6524;BME280;3295;38.928;-77.052;2022-12-31T06:41:24;101367.88;;;15.15;100.00
6524;BME280;3295;38.928;-77.052;2022-12-31T06:43:52;101362.34;;;15.06;100.00
6524;BME280;3295;38.928;-77.052;2022-12-31T06:46:20;101365.72;;;15.05;100.00
6524;BME280;3295;38.928;-77.052;2022-12-31T06:48:48;101358.75;;;15.01;100.00
6524;BME280;3295;38.928;-77.052;2022-12-31T06:51:17;101351.97;;;15.03;100.00
6524;BME280;3295;38.928;-77.052;2022-12-31T06:53:45;101342.59;;;15.03;100.00
6524;BME280;3295;38.928;-77.052;2022-12-31T06:56:15;101339.81;;;14.99;100.00
6524;BME280;3295;38.928;-77.052;2022-12-31T06:58:46;101339.47;;;14.89;100.00
6524;BME280;3295;38.928;-77.052;2022-12-31T07:01:28;101334.44;;;14.92;100.00
6524;BME280;3295;38.928;-77.052;2022-12-31T07:04:02;101338.06;;;14.98;100.00
6524;BME280;3295;38.928;-77.052;2022-12-31T07:06:35;101336.56;;;15.03;100.00
6524;BME280;3295;38.928;-77.052;2022-12-31T07:09:09;101331.31;;;15.00;100.00
6524;BME280;3295;38.928;-77.052;2022-12-31T07:11:59;101330.22;;;14.94;100.00
6524;BME280;3295;38.928;-77.052;2022-12-31T07:14:36;101327.66;;;14.94;100.00
6524;BME280;3295;38.928;-77.052;2022-12-31T07:17:20;101327.66;;;14.94;100.00
6524;BME280;3295;38.928;-77.052;2022-12-31T07:19:56;101332.81;;;14.94;100.00
6524;BME280;3295;38.928;-77.052;2022-12-31T07:22:27;101320.28;;;14.81;100.00
6524;BME280;3295;38.928;-77.052;2022-12-31T07:24:56;101321.28;;;14.85;100.00
6524;BME280;3295;38.928;-77.052;2022-12-31T07:27:40;101316.97;;;14.84;100.00
6524;BME280;3295;38.928;-77.052;2022-12-31T07:30:13;101310.38;;;14.90;100.00
6524;BME280;3295;38.928;-77.052;2022-12-31T07:32:58;101308.66;;;14.89;100.00
6524;BME280;3295;38.928;-77.052;2022-12-31T07:35:36;101296.09;;;14.97;100.00
6524;BME280;3295;38.928;-77.052;2022-12-31T07:38:19;101292.94;;;15.04;100.00
6524;BME280;3295;38.928;-77.052;2022-12-31T07:40:59;101286.81;;;15.01;100.00
6524;BME280;3295;38.928;-77.052;2022-12-31T07:43:33;101276.28;;;14.94;100.00
6524;BME280;3295;38.928;-77.052;2022-12-31T07:46:12;101272.09;;;14.97;100.00
6524;BME280;3295;38.928;-77.052;2022-12-31T07:48:43;101279.94;;;15.00;100.00
6524;BME280;3295;38.928;-77.052;2022-12-31T07:51:12;101278.31;;;15.02;100.00
6524;BME280;3295;38.928;-77.052;2022-12-31T07:53:40;101272.22;;;15.00;100.00
6524;BME280;3295;38.928;-77.052;2022-12-31T07:56:08;101251.78;;;14.80;100.00
6524;BME280;3295;38.928;-77.052;2022-12-31T07:58:49;101248.50;;;14.84;100.00
6524;BME280;3295;38.928;-77.052;2022-12-31T08:01:30;101241.03;;;14.90;100.00
6524;BME280;3295;38.928;-77.052;2022-12-31T08:04:03;101247.09;;;14.92;100.00
6524;BME280;3295;38.928;-77.052;2022-12-31T08:06:38;101254.19;;;14.98;100.00
6524;BME280;3295;38.928;-77.052;2022-12-31T08:09:23;101237.28;;;15.05;100.00
6524;BME280;3295;38.928;-77.052;2022-12-31T08:11:55;101237.19;;;15.02;100.00
6524;BME280;3295;38.928;-77.052;2022-12-31T08:14:24;101240.47;;;14.98;100.00
6524;BME280;3295;38.928;-77.052;2022-12-31T08:16:55;101236.94;;;14.96;100.00
6524;BME280;3295;38.928;-77.052;2022-12-31T08:19:25;101218.91;;;14.94;100.00
6524;BME280;3295;38.928;-77.052;2022-12-31T08:22:13;101235.25;;;14.96;100.00
6524;BME280;3295;38.928;-77.052;2022-12-31T08:24:54;101225.03;;;14.98;100.00
6524;BME280;3295;38.928;-77.052;2022-12-31T08:27:30;101215.59;;;14.97;100.00
6524;BME280;3295;38.928;-77.052;2022-12-31T08:30:06;101232.56;;;14.93;100.00
6524;BME280;3295;38.928;-77.052;2022-12-31T08:32:40;101221.41;;;14.92;100.00
6524;BME280;3295;38.928;-77.052;2022-12-31T08:35:22;101220.66;;;14.95;100.00
6524;BME280;3295;38.928;-77.052;2022-12-31T08:38:00;101225.03;;;14.98;100.00
6524;BME280;3295;38.928;-77.052;2022-12-31T08:40:36;101215.84;;;15.03;100.00
6524;BME280;3295;38.928;-77.052;2022-12-31T08:43:20;101224.63;;;15.09;100.00
6524;BME280;3295;38.928;-77.052;2022-12-31T08:45:57;101213.34;;;15.06;100.00
6524;BME280;3295;38.928;-77.052;2022-12-31T08:48:31;101210.78;;;15.06;100.00
6524;BME280;3295;38.928;-77.052;2022-12-31T08:51:03;101204.94;;;15.10;100.00
6524;BME280;3295;38.928;-77.052;2022-12-31T08:53:31;101206.81;;;15.14;100.00
6524;BME280;3295;38.928;-77.052;2022-12-31T08:56:04;101194.69;;;15.10;100.00
6524;BME280;3295;38.928;-77.052;2022-12-31T08:58:41;101188.47;;;15.03;100.00
6524;BME280;3295;38.928;-77.052;2022-12-31T09:01:11;101181.00;;;14.87;100.00
6524;BME280;3295;38.928;-77.052;2022-12-31T09:04:04;101190.03;;;14.77;100.00
6524;BME280;3295;38.928;-77.052;2022-12-31T09:06:38;101172.16;;;14.80;100.00
6524;BME280;3295;38.928;-77.052;2022-12-31T09:09:14;101162.72;;;14.79;100.00
6524;BME280;3295;38.928;-77.052;2022-12-31T09:11:50;101157.69;;;14.82;100.00
6524;BME280;3295;38.928;-77.052;2022-12-31T09:14:31;101165.47;;;14.84;100.00
6524;BME280;3295;38.928;-77.052;2022-12-31T09:17:13;101165.34;;;14.81;100.00
6524;BME280;3295;38.928;-77.052;2022-12-31T09:19:46;101170.97;;;14.71;100.00
6524;BME280;3295;38.928;-77.052;2022-12-31T09:22:15;101166.81;;;14.52;100.00
6524;BME280;3295;38.928;-77.052;2022-12-31T09:24:43;101186.25;;;14.68;100.00
6524;BME280;3295;38.928;-77.052;2022-12-31T09:27:15;101189.41;;;14.61;100.00
6524;BME280;3295;38.928;-77.052;2022-12-31T09:29:53;101191.38;;;14.45;100.00
6524;BME280;3295;38.928;-77.052;2022-12-31T09:32:32;101176.34;;;14.34;100.00
6524;BME280;3295;38.928;-77.052;2022-12-31T09:35:12;101175.94;;;14.24;100.00
6524;BME280;3295;38.928;-77.052;2022-12-31T09:37:45;101172.56;;;14.26;100.00
6524;BME280;3295;38.928;-77.052;2022-12-31T09:40:40;101179.94;;;14.39;100.00
6524;BME280;3295;38.928;-77.052;2022-12-31T09:52:42;101195.28;;;14.58;100.00
6524;BME280;3295;38.928;-77.052;2022-12-31T09:55:35;101171.59;;;14.65;100.00
6524;BME280;3295;38.928;-77.052;2022-12-31T09:58:15;101160.63;;;14.47;100.00
6524;BME280;3295;38.928;-77.052;2022-12-31T10:00:52;101152.25;;;14.09;100.00
6524;BME280;3295;38.928;-77.052;2022-12-31T10:04:01;101169.41;;;13.90;100.00
6524;BME280;3295;38.928;-77.052;2022-12-31T10:06:38;101169.97;;;14.03;100.00
6524;BME280;3295;38.928;-77.052;2022-12-31T10:09:27;101160.22;;;14.15;100.00
6524;BME280;3295;38.928;-77.052;2022-12-31T10:12:11;101161.63;;;14.30;100.00
6524;BME280;3295;38.928;-77.052;2022-12-31T10:15:00;101164.31;;;14.33;100.00
6524;BME280;3295;38.928;-77.052;2022-12-31T10:17:44;101161.63;;;14.30;100.00
6524;BME280;3295;38.928;-77.052;2022-12-31T10:20:26;101160.75;;;14.29;100.00
6524;BME280;3295;38.928;-77.052;2022-12-31T10:26:46;101138.28;;;14.23;100.00
6524;BME280;3295;38.928;-77.052;2022-12-31T10:29:24;101134.19;;;14.06;100.00
6524;BME280;3295;38.928;-77.052;2022-12-31T10:32:10;101140.38;;;14.11;100.00
6524;BME280;3295;38.928;-77.052;2022-12-31T10:34:54;101146.78;;;14.22;100.00
6524;BME280;3295;38.928;-77.052;2022-12-31T10:37:31;101150.38;;;14.26;100.00
6524;BME280;3295;38.928;-77.052;2022-12-31T10:40:19;101148.88;;;14.10;100.00
6524;BME280;3295;38.928;-77.052;2022-12-31T10:43:11;101152.84;;;14.02;100.00
6524;BME280;3295;38.928;-77.052;2022-12-31T10:52:31;101131.41;;;14.22;100.00
6524;BME280;3295;38.928;-77.052;2022-12-31T10:58:31;101118.69;;;14.03;100.00
6524;BME280;3295;38.928;-77.052;2022-12-31T11:01:12;101110.66;;;13.96;100.00
6524;BME280;3295;38.928;-77.052;2022-12-31T11:07:24;101086.22;;;14.04;100.00
6524;BME280;3295;38.928;-77.052;2022-12-31T11:13:22;101081.63;;;14.17;100.00
6524;BME280;3295;38.928;-77.052;2022-12-31T11:16:06;101064.00;;;14.27;100.00
6524;BME280;3295;38.928;-77.052;2022-12-31T11:18:44;101060.00;;;14.33;100.00
6524;BME280;3295;38.928;-77.052;2022-12-31T11:21:21;101066.91;;;14.36;100.00
6524;BME280;3295;38.928;-77.052;2022-12-31T11:23:56;101087.84;;;14.45;100.00
6524;BME280;3295;38.928;-77.052;2022-12-31T11:26:39;101087.25;;;14.52;100.00
6524;BME280;3295;38.928;-77.052;2022-12-31T11:29:24;101092.00;;;14.65;100.00
6524;BME280;3295;38.928;-77.052;2022-12-31T11:32:06;101093.88;;;14.69;100.00
6524;BME280;3295;38.928;-77.052;2022-12-31T11:34:55;101098.25;;;14.72;100.00
6524;BME280;3295;38.928;-77.052;2022-12-31T11:37:35;101102.69;;;14.76;100.00
6524;BME280;3295;38.928;-77.052;2022-12-31T11:40:42;101098.53;;;14.79;100.00
6524;BME280;3295;38.928;-77.052;2022-12-31T11:43:33;101103.84;;;14.84;100.00
6524;BME280;3295;38.928;-77.052;2022-12-31T11:46:41;101109.84;;;14.84;100.00
6524;BME280;3295;38.928;-77.052;2022-12-31T11:49:23;101100.44;;;14.85;100.00
6524;BME280;3295;38.928;-77.052;2022-12-31T11:52:15;101105.59;;;14.85;100.00
6524;BME280;3295;38.928;-77.052;2022-12-31T11:55:00;101105.66;;;14.86;100.00
6524;BME280;3295;38.928;-77.052;2022-12-31T11:57:33;101098.88;;;14.88;100.00
6524;BME280;3295;38.928;-77.052;2022-12-31T12:00:08;101092.91;;;14.89;100.00
6524;BME280;3295;38.928;-77.052;2022-12-31T12:02:43;101089.63;;;14.93;100.00
6524;BME280;3295;38.928;-77.052;2022-12-31T12:05:15;101080.28;;;14.96;100.00
6524;BME280;3295;38.928;-77.052;2022-12-31T12:07:43;101094.69;;;14.92;100.00
6524;BME280;3295;38.928;-77.052;2022-12-31T12:10:20;101088.75;;;14.93;100.00
6524;BME280;3295;38.928;-77.052;2022-12-31T12:12:49;101081.03;;;14.93;100.00
6524;BME280;3295;38.928;-77.052;2022-12-31T12:15:21;101089.78;;;14.98;100.00
6524;BME280;3295;38.928;-77.052;2022-12-31T12:17:56;101083.78;;;14.98;100.00
6524;BME280;3295;38.928;-77.052;2022-12-31T12:20:29;101074.22;;;14.93;100.00
6524;BME280;3295;38.928;-77.052;2022-12-31T12:23:01;101063.94;;;14.93;100.00
6524;BME280;3295;38.928;-77.052;2022-12-31T12:25:37;101061.22;;;14.89;100.00
6524;BME280;3295;38.928;-77.052;2022-12-31T12:28:19;101058.69;;;14.90;100.00
6524;BME280;3295;38.928;-77.052;2022-12-31T12:30:53;101038.06;;;14.87;100.00
6524;BME280;3295;38.928;-77.052;2022-12-31T12:33:23;101038.16;;;14.90;100.00
6524;BME280;3295;38.928;-77.052;2022-12-31T12:35:51;101023.59;;;14.91;100.00
6524;BME280;3295;38.928;-77.052;2022-12-31T12:38:20;101005.69;;;14.92;100.00
6524;BME280;3295;38.928;-77.052;2022-12-31T12:40:55;101006.44;;;14.88;100.00
6524;BME280;3295;38.928;-77.052;2022-12-31T12:43:26;101003.84;;;14.88;100.00
6524;BME280;3295;38.928;-77.052;2022-12-31T12:45:58;100990.28;;;14.92;100.00
6524;BME280;3295;38.928;-77.052;2022-12-31T12:48:36;100985.16;;;14.92;100.00
6524;BME280;3295;38.928;-77.052;2022-12-31T12:51:19;100966.16;;;14.87;100.00
6524;BME280;3295;38.928;-77.052;2022-12-31T12:53:57;100969.66;;;14.89;100.00
6524;BME280;3295;38.928;-77.052;2022-12-31T12:56:32;100979.06;;;14.89;100.00
6524;BME280;3295;38.928;-77.052;2022-12-31T12:59:20;100980.88;;;14.93;100.00
6524;BME280;3295;38.928;-77.052;2022-12-31T13:01:57;100983.41;;;14.91;100.00
6524;BME280;3295;38.928;-77.052;2022-12-31T13:04:46;100981.66;;;14.90;100.00
6524;BME280;3295;38.928;-77.052;2022-12-31T13:07:26;100986.69;;;14.87;100.00
6524;BME280;3295;38.928;-77.052;2022-12-31T13:10:16;100983.31;;;14.88;100.00
6524;BME280;3295;38.928;-77.052;2022-12-31T13:12:50;100979.81;;;14.86;100.00
6524;BME280;3295;38.928;-77.052;2022-12-31T13:15:22;100981.66;;;14.90;100.00
6524;BME280;3295;38.928;-77.052;2022-12-31T13:18:01;100980.13;;;14.96;100.00
6524;BME280;3295;38.928;-77.052;2022-12-31T13:20:38;100978.38;;;14.94;100.00
6524;BME280;3295;38.928;-77.052;2022-12-31T13:23:13;100974.97;;;14.96;100.00
6524;BME280;3295;38.928;-77.052;2022-12-31T13:25:54;100964.66;;;14.94;100.00
6524;BME280;3295;38.928;-77.052;2022-12-31T13:28:26;100979.25;;;14.95;100.00
6524;BME280;3295;38.928;-77.052;2022-12-31T13:30:58;100968.22;;;14.98;100.00
6524;BME280;3295;38.928;-77.052;2022-12-31T13:33:30;100965.59;;;14.96;100.00
6524;BME280;3295;38.928;-77.052;2022-12-31T13:36:02;100958.34;;;14.84;100.00
6524;BME280;3295;38.928;-77.052;2022-12-31T13:38:34;100970.56;;;14.91;100.00
6524;BME280;3295;38.928;-77.052;2022-12-31T13:41:10;100973.03;;;14.88;100.00
6524;BME280;3295;38.928;-77.052;2022-12-31T13:43:46;100980.75;;;14.88;100.00
6524;BME280;3295;38.928;-77.052;2022-12-31T13:46:21;100995.22;;;14.86;100.00